Time;durP1;ratioP1;P1;durP2;ratioP2;P2;SDS_P1;SDS_P2;PMS_P1;PMS_P2;Temp;Humidity;BMP_temperature;BMP_pressure;BME280_temperature;BME280_humidity;BME280_pressure;Samples;Min_cycle;Max_cycle;Signal;HPM_P1;HPM_P2
2021/07/22 00:01:36;;;;;;;12.82;7.20;;;15.70;99.90;;;;;;5093388;28;20419;-61
2021/07/22 00:04:02;;;;;;;12.03;7.20;;;15.60;99.90;;;;;;5093411;28;20376;-61
2021/07/22 00:06:28;;;;;;;15.07;7.70;;;15.50;99.90;;;;;;5093360;28;20388;-61
2021/07/22 00:08:54;;;;;;;15.88;7.15;;;15.50;99.90;;;;;;5093289;28;20361;-61
2021/07/22 00:11:20;;;;;;;23.95;7.82;;;15.40;99.90;;;;;;5093167;28;20376;-61
2021/07/22 00:13:46;;;;;;;13.25;7.38;;;15.40;99.90;;;;;;5093401;28;20422;-61
2021/07/22 00:16:16;;;;;;;14.65;7.25;;;15.40;99.90;;;;;;5093222;28;20373;-61
2021/07/22 00:18:42;;;;;;;12.87;7.37;;;15.40;99.90;;;;;;5093256;28;20710;-61
2021/07/22 00:21:09;;;;;;;12.73;6.85;;;15.40;99.90;;;;;;5093189;28;20400;-61
2021/07/22 00:23:35;;;;;;;14.55;6.80;;;15.30;99.90;;;;;;5092874;28;20386;-61
2021/07/22 00:26:04;;;;;;;20.58;7.13;;;15.30;99.90;;;;;;5093049;28;20377;-60
2021/07/22 00:28:30;;;;;;;12.57;6.70;;;15.30;99.90;;;;;;5092464;28;20377;-61
2021/07/22 00:30:57;;;;;;;10.25;6.72;;;15.20;99.90;;;;;;5092374;28;20373;-61
2021/07/22 00:33:23;;;;;;;14.60;7.07;;;15.20;99.90;;;;;;5092792;28;20381;-61
2021/07/22 00:35:50;;;;;;;15.35;7.30;;;15.20;99.90;;;;;;5091292;28;20373;-61
2021/07/22 00:38:16;;;;;;;12.45;6.55;;;15.20;99.90;;;;;;5093030;28;20388;-61
2021/07/22 00:40:44;;;;;;;11.73;6.28;;;15.10;99.90;;;;;;5092308;28;20911;-61
2021/07/22 00:43:10;;;;;;;14.20;6.90;;;15.10;99.90;;;;;;5091184;28;20419;-60
2021/07/22 00:45:36;;;;;;;11.70;6.78;;;15.10;99.90;;;;;;5092540;28;20368;-61
2021/07/22 00:48:02;;;;;;;14.35;7.05;;;15.10;99.90;;;;;;5092456;28;20392;-61
2021/07/22 00:50:29;;;;;;;13.70;7.03;;;15.10;99.90;;;;;;5092403;28;20360;-59
2021/07/22 00:52:55;;;;;;;13.48;7.20;;;15.00;99.90;;;;;;5091202;28;20444;-60
2021/07/22 00:55:26;;;;;;;13.98;6.80;;;15.00;99.90;;;;;;5092376;28;20375;-60
2021/07/22 00:57:53;;;;;;;13.13;6.80;;;15.00;99.90;;;;;;5092399;28;20392;-61
2021/07/22 01:00:19;;;;;;;15.15;7.22;;;15.00;99.90;;;;;;5092267;28;20380;-61
2021/07/22 01:02:45;;;;;;;13.27;7.03;;;15.00;99.90;;;;;;5092123;28;20400;-61
2021/07/22 01:05:11;;;;;;;15.30;7.07;;;14.90;99.90;;;;;;5090741;28;20390;-61
2021/07/22 01:07:38;;;;;;;14.27;7.05;;;14.90;99.90;;;;;;5092193;28;20737;-61
2021/07/22 01:10:04;;;;;;;13.30;7.20;;;14.90;99.90;;;;;;5092457;28;20733;-60
2021/07/22 01:12:31;;;;;;;13.97;7.50;;;14.90;99.90;;;;;;5091945;28;20716;-61
2021/07/22 01:14:57;;;;;;;14.00;7.05;;;14.90;99.90;;;;;;5092008;28;20896;-61
2021/07/22 01:17:44;;;;;;;13.38;7.00;;;14.90;99.90;;;;;;5091794;28;20875;-61
2021/07/22 01:20:31;;;;;;;11.13;6.47;;;14.90;99.90;;;;;;5092207;28;20388;-61
2021/07/22 01:22:57;;;;;;;15.82;7.30;;;14.90;99.90;;;;;;5091576;28;20404;-61
2021/07/22 01:25:24;;;;;;;13.60;7.17;;;14.80;99.90;;;;;;5091962;28;20849;-61
2021/07/22 01:27:50;;;;;;;15.43;7.03;;;14.80;99.90;;;;;;5091610;28;20715;-60
2021/07/22 01:30:17;;;;;;;12.10;6.90;;;14.80;99.90;;;;;;5091690;28;20385;-60
2021/07/22 01:32:43;;;;;;;12.07;6.80;;;14.80;99.90;;;;;;5090002;28;20377;-60
2021/07/22 01:35:10;;;;;;;13.00;6.85;;;14.80;99.90;;;;;;5090375;28;20792;-60
2021/07/22 01:37:40;;;;;;;10.95;7.05;;;14.80;99.90;;;;;;5091675;28;20872;-60
2021/07/22 01:40:07;;;;;;;14.15;7.60;;;14.70;99.90;;;;;;5091008;28;20390;-60
2021/07/22 01:42:33;;;;;;;13.77;7.03;;;14.70;99.90;;;;;;5091794;28;20388;-60
2021/07/22 01:44:59;;;;;;;15.20;7.20;;;14.70;99.90;;;;;;5090316;28;20752;-60
2021/07/22 01:47:25;;;;;;;14.15;7.20;;;14.70;99.90;;;;;;5091437;28;20381;-60
2021/07/22 01:49:51;;;;;;;14.45;7.32;;;14.60;99.90;;;;;;5091223;28;20364;-61
2021/07/22 01:52:18;;;;;;;13.23;6.50;;;14.60;99.90;;;;;;5091834;28;20377;-60
2021/07/22 01:54:44;;;;;;;14.70;7.20;;;14.60;99.90;;;;;;5091372;28;20721;-60
2021/07/22 01:57:10;;;;;;;14.00;6.95;;;14.60;99.90;;;;;;5091138;28;20381;-60
2021/07/22 01:59:36;;;;;;;11.95;7.00;;;14.60;99.90;;;;;;5091467;28;20737;-61
2021/07/22 02:02:06;;;;;;;14.70;7.18;;;14.60;99.90;;;;;;5091185;28;20427;-61
2021/07/22 02:04:33;;;;;;;12.82;7.55;;;14.50;99.90;;;;;;5091734;28;20380;-61
2021/07/22 02:06:59;;;;;;;14.48;7.20;;;14.60;99.90;;;;;;5091527;28;20838;-61
2021/07/22 02:09:25;;;;;;;11.77;6.87;;;14.60;99.90;;;;;;5091051;28;20734;-61
2021/07/22 02:11:52;;;;;;;12.63;6.85;;;14.70;99.90;;;;;;5091136;28;20385;-61
2021/07/22 02:14:18;;;;;;;10.87;6.97;;;14.70;99.90;;;;;;5091241;28;20365;-61
2021/07/22 02:16:44;;;;;;;10.65;6.85;;;14.70;99.90;;;;;;5089395;28;20380;-61
2021/07/22 02:19:10;;;;;;;14.57;7.38;;;14.60;99.90;;;;;;5091049;28;20383;-61
2021/07/22 02:21:39;;;;;;;11.70;7.05;;;14.60;99.90;;;;;;5091004;28;20388;-61
2021/07/22 02:24:06;;;;;;;11.43;6.88;;;14.60;99.90;;;;;;5091161;28;20380;-61
2021/07/22 02:26:33;;;;;;;12.90;7.28;;;14.60;99.90;;;;;;5091277;28;20383;-61
2021/07/22 02:29:00;;;;;;;12.85;7.53;;;14.50;99.90;;;;;;5091059;28;20705;-60
2021/07/22 02:31:26;;;;;;;12.98;7.57;;;14.50;99.90;;;;;;5089795;28;20380;-61
2021/07/22 02:33:52;;;;;;;14.30;7.53;;;14.40;99.90;;;;;;5090788;28;21072;-60
2021/07/22 02:36:18;;;;;;;12.07;7.20;;;14.40;99.90;;;;;;5090782;28;20388;-60
2021/07/22 02:38:44;;;;;;;15.57;7.30;;;14.40;99.90;;;;;;5089545;28;20384;-61
2021/07/22 02:41:11;;;;;;;13.32;7.35;;;14.40;99.90;;;;;;5090758;28;20395;-60
2021/07/22 02:43:37;;;;;;;12.07;7.35;;;14.30;99.90;;;;;;5089652;28;20865;-60
2021/07/22 02:46:06;;;;;;;13.63;7.75;;;14.30;99.90;;;;;;5090785;28;20384;-61
2021/07/22 02:48:33;;;;;;;14.97;7.77;;;14.30;99.90;;;;;;5090806;28;20388;-62
2021/07/22 02:51:00;;;;;;;13.23;7.40;;;14.30;99.90;;;;;;5090565;28;20373;-61
2021/07/22 02:53:29;;;;;;;14.45;7.70;;;14.30;99.90;;;;;;5092033;28;20738;-61
2021/07/22 02:55:56;;;;;;;12.05;7.40;;;14.30;99.90;;;;;;5094679;28;20372;-61
2021/07/22 02:58:22;;;;;;;13.27;7.55;;;14.30;99.90;;;;;;5093524;28;20372;-60
2021/07/22 03:00:48;;;;;;;15.07;8.10;;;14.30;99.90;;;;;;5095121;28;20388;-61
2021/07/22 03:03:14;;;;;;;15.35;8.43;;;14.30;99.90;;;;;;5094454;28;20400;-60
2021/07/22 03:05:40;;;;;;;16.20;8.48;;;14.30;99.90;;;;;;5094518;28;20717;-61
2021/07/22 03:08:07;;;;;;;14.07;7.95;;;14.30;99.90;;;;;;5094699;28;20403;-61
2021/07/22 03:10:33;;;;;;;12.43;7.43;;;14.30;99.90;;;;;;5094430;28;20861;-61
2021/07/22 03:12:59;;;;;;;13.60;7.30;;;14.30;99.90;;;;;;5093278;28;20834;-60
2021/07/22 03:15:25;;;;;;;14.25;7.22;;;14.30;99.90;;;;;;5094485;28;20377;-61
2021/07/22 03:17:51;;;;;;;12.50;7.60;;;14.30;99.90;;;;;;5094277;28;20382;-61
2021/07/22 03:20:17;;;;;;;13.00;7.23;;;14.30;99.90;;;;;;5093010;28;20915;-61
2021/07/22 03:22:43;;;;;;;14.35;7.40;;;14.30;99.90;;;;;;5094215;28;20400;-60
2021/07/22 03:25:10;;;;;;;11.50;7.32;;;14.30;99.90;;;;;;5094331;28;20365;-61
2021/07/22 03:27:36;;;;;;;11.88;7.30;;;14.30;99.90;;;;;;5094077;28;20392;-61
2021/07/22 03:30:02;;;;;;;14.07;7.63;;;14.30;99.90;;;;;;5092819;28;20385;-61
2021/07/22 03:32:28;;;;;;;13.13;7.20;;;14.40;99.90;;;;;;5094062;28;20385;-61
2021/07/22 03:34:54;;;;;;;13.23;7.13;;;14.40;99.90;;;;;;5093873;28;20900;-61
2021/07/22 03:37:20;;;;;;;14.85;7.43;;;14.40;99.90;;;;;;5094267;28;20384;-61
2021/07/22 03:39:46;;;;;;;13.27;7.55;;;14.40;99.90;;;;;;5093967;28;20878;-60
2021/07/22 03:42:12;;;;;;;13.05;7.30;;;14.40;99.90;;;;;;5093439;28;20416;-60
2021/07/22 03:44:39;;;;;;;14.63;7.80;;;14.50;99.90;;;;;;5093884;28;20384;-61
2021/07/22 03:47:05;;;;;;;13.98;7.53;;;14.50;99.90;;;;;;5093615;28;20380;-61
2021/07/22 03:49:31;;;;;;;11.73;7.35;;;14.60;99.90;;;;;;5091996;28;20380;-61
2021/07/22 03:51:57;;;;;;;12.80;7.40;;;14.60;99.90;;;;;;5093674;28;20381;-61
2021/07/22 03:54:24;;;;;;;11.20;6.78;;;14.60;99.90;;;;;;5093535;28;20443;-60
2021/07/22 03:56:50;;;;;;;13.32;6.75;;;14.70;99.90;;;;;;5093715;28;20379;-61
2021/07/22 03:59:19;;;;;;;10.93;6.75;;;14.70;99.90;;;;;;5092921;28;20373;-60
2021/07/22 04:01:45;;;;;;;12.23;6.70;;;14.80;99.90;;;;;;5090829;28;20393;-60
2021/07/22 04:04:11;;;;;;;12.45;7.13;;;14.90;99.90;;;;;;5073858;28;20394;-61
2021/07/22 04:06:38;;;;;;;12.00;6.70;;;14.90;99.90;;;;;;5084687;28;20402;-60
2021/07/22 04:09:04;;;;;;;13.33;7.10;;;15.00;99.90;;;;;;5073554;28;20386;-61
2021/07/22 04:11:30;;;;;;;12.02;6.90;;;15.00;99.90;;;;;;5075776;28;20385;-61
2021/07/22 04:13:57;;;;;;;12.73;6.57;;;15.00;99.90;;;;;;5074802;28;20400;-60
2021/07/22 04:16:23;;;;;;;12.00;6.88;;;15.00;99.90;;;;;;5075182;28;20401;-61
2021/07/22 04:18:49;;;;;;;13.90;6.47;;;15.10;99.90;;;;;;5074632;28;20371;-61
2021/07/22 04:21:15;;;;;;;13.57;6.63;;;15.10;99.90;;;;;;5072520;28;20379;-61
2021/07/22 04:23:42;;;;;;;9.80;6.38;;;15.20;99.90;;;;;;5079278;28;20790;-61
2021/07/22 04:26:16;;;;;;;10.77;6.50;;;15.30;99.90;;;;;;5076310;28;20384;-61
2021/07/22 04:28:42;;;;;;;12.60;6.87;;;15.40;99.90;;;;;;5072407;28;20393;-61
2021/07/22 04:31:13;;;;;;;11.33;6.40;;;15.50;99.90;;;;;;5074918;28;20382;-61
2021/07/22 04:33:39;;;;;;;11.27;6.18;;;15.50;99.90;;;;;;5078218;28;20401;-61
2021/07/22 04:36:05;;;;;;;11.30;5.88;;;15.60;99.90;;;;;;5072200;28;20728;-61
2021/07/22 04:38:34;;;;;;;8.80;5.80;;;15.70;99.90;;;;;;5072374;28;20762;-61
2021/07/22 04:41:20;;;;;;;12.15;6.00;;;15.80;99.90;;;;;;5077177;28;20395;-61
2021/07/22 04:43:46;;;;;;;10.77;5.72;;;15.90;99.90;;;;;;5074127;28;20874;-61
2021/07/22 04:46:13;;;;;;;12.30;6.05;;;16.00;99.90;;;;;;5074355;28;20378;-61
2021/07/22 04:48:39;;;;;;;9.00;5.78;;;16.10;99.90;;;;;;5074330;28;20375;-61
2021/07/22 04:51:05;;;;;;;11.38;6.25;;;16.10;99.90;;;;;;5076772;28;20862;-61
2021/07/22 04:53:35;;;;;;;11.30;6.05;;;16.20;99.90;;;;;;5078808;28;20387;-60
2021/07/22 04:56:01;;;;;;;11.68;6.00;;;16.20;99.90;;;;;;5077880;28;20732;-61
2021/07/22 04:58:27;;;;;;;10.10;6.03;;;16.40;99.90;;;;;;5093172;28;20418;-61
2021/07/22 05:00:56;;;;;;;13.43;6.20;;;16.40;99.90;;;;;;5093507;28;20404;-59
2021/07/22 05:03:22;;;;;;;9.93;5.73;;;16.50;99.90;;;;;;5092938;28;20401;-60
2021/07/22 05:05:48;;;;;;;11.50;5.75;;;16.60;99.90;;;;;;5093101;28;20372;-60
2021/07/22 05:08:14;;;;;;;11.88;5.85;;;16.70;99.90;;;;;;5093454;28;20392;-60
2021/07/22 05:10:40;;;;;;;10.40;5.70;;;16.80;99.90;;;;;;5093499;28;20404;-61
2021/07/22 05:13:06;;;;;;;10.48;5.93;;;16.90;99.90;;;;;;5093022;28;20387;-61
2021/07/22 05:15:32;;;;;;;11.00;5.67;;;17.00;99.90;;;;;;5093091;28;20383;-60
2021/07/22 05:17:59;;;;;;;11.57;5.90;;;17.10;99.90;;;;;;5092881;28;20869;-61
2021/07/22 05:20:25;;;;;;;13.35;5.70;;;17.20;99.90;;;;;;5093611;28;20368;-60
2021/07/22 05:22:51;;;;;;;12.57;5.73;;;17.20;99.90;;;;;;5093176;28;20754;-61
2021/07/22 05:25:17;;;;;;;10.25;5.22;;;17.40;99.90;;;;;;5092716;28;20372;-61
2021/07/22 05:27:43;;;;;;;10.52;5.28;;;17.40;99.90;;;;;;5088958;28;20385;-61
2021/07/22 05:30:10;;;;;;;12.20;5.55;;;17.50;99.90;;;;;;5080905;28;20377;-61
2021/07/22 05:32:36;;;;;;;12.00;5.30;;;17.60;99.90;;;;;;5083187;28;20754;-61
2021/07/22 05:35:02;;;;;;;12.98;5.30;;;17.70;99.90;;;;;;5083789;28;20399;-61
2021/07/22 05:37:28;;;;;;;10.02;4.97;;;17.90;99.90;;;;;;5082274;28;20878;-59
2021/07/22 05:39:54;;;;;;;12.73;5.15;;;18.10;99.90;;;;;;5080971;28;20388;-59
2021/07/22 05:42:20;;;;;;;10.02;4.55;;;18.30;99.90;;;;;;5082804;28;20419;-60
2021/07/22 05:44:46;;;;;;;11.00;5.20;;;18.40;99.90;;;;;;5082664;28;20399;-60
2021/07/22 05:47:12;;;;;;;12.07;5.00;;;18.50;99.90;;;;;;5081880;28;20401;-60
2021/07/22 05:49:38;;;;;;;11.68;4.97;;;18.60;99.90;;;;;;5081454;28;20757;-60
2021/07/22 05:52:05;;;;;;;8.27;4.60;;;18.70;99.90;;;;;;5079990;28;20382;-60
2021/07/22 05:54:31;;;;;;;10.18;4.60;;;18.80;99.90;;;;;;5081707;28;20869;-60
2021/07/22 05:56:57;;;;;;;10.63;4.95;;;19.00;99.90;;;;;;5079255;28;20392;-59
2021/07/22 05:59:23;;;;;;;7.07;4.25;;;19.00;99.90;;;;;;5081017;28;20389;-60
2021/07/22 06:01:49;;;;;;;10.95;5.18;;;19.00;99.90;;;;;;5079448;28;20736;-61
2021/07/22 06:04:15;;;;;;;10.35;4.47;;;19.00;99.90;;;;;;5080094;28;20402;-61
2021/07/22 06:06:43;;;;;;;10.68;4.60;;;19.00;99.90;;;;;;5081527;28;20878;-61
2021/07/22 06:09:10;;;;;;;15.07;4.80;;;19.00;99.90;;;;;;5079207;28;20390;-61
2021/07/22 06:11:36;;;;;;;10.85;4.82;;;19.10;99.90;;;;;;5081127;28;20379;-61
2021/07/22 06:14:02;;;;;;;8.98;4.88;;;19.10;99.90;;;;;;5091141;28;20380;-61
2021/07/22 06:16:30;;;;;;;9.05;4.47;;;19.30;99.90;;;;;;5090480;28;20384;-61
2021/07/22 06:18:56;;;;;;;9.02;4.50;;;19.30;99.90;;;;;;5083427;28;20374;-60
2021/07/22 06:21:22;;;;;;;10.73;4.57;;;19.20;99.90;;;;;;5082671;28;20888;-60
2021/07/22 06:23:48;;;;;;;9.85;4.75;;;19.30;99.90;;;;;;5082226;28;20877;-59
2021/07/22 06:26:14;;;;;;;12.03;4.43;;;19.40;99.90;;;;;;5082690;28;20387;-59
2021/07/22 06:28:41;;;;;;;11.50;5.25;;;19.50;99.90;;;;;;5088271;28;20736;-60
2021/07/22 06:31:07;;;;;;;11.60;4.70;;;19.50;99.90;;;;;;5088061;28;20372;-61
2021/07/22 06:33:33;;;;;;;8.90;4.47;;;19.60;99.90;;;;;;5086423;28;20865;-62
2021/07/22 06:35:59;;;;;;;10.73;4.93;;;19.60;99.90;;;;;;5087815;28;20403;-60
2021/07/22 06:38:29;;;;;;;8.00;4.80;;;19.50;99.90;;;;;;5089459;28;20380;-61
2021/07/22 06:40:56;;;;;;;9.43;4.53;;;19.50;99.90;;;;;;5094738;28;20484;-61
2021/07/22 06:43:22;;;;;;;8.63;4.68;;;19.50;99.90;;;;;;5094932;28;20396;-60
2021/07/22 06:45:48;;;;;;;10.05;4.40;;;19.70;99.90;;;;;;5093687;28;20405;-60
2021/07/22 06:48:14;;;;;;;8.48;4.13;;;19.80;99.90;;;;;;5094893;28;20376;-60
2021/07/22 06:50:40;;;;;;;10.25;4.45;;;19.70;99.90;;;;;;5094701;28;20369;-61
2021/07/22 06:53:06;;;;;;;9.95;4.40;;;19.80;99.90;;;;;;5094641;28;20741;-61
2021/07/22 06:55:33;;;;;;;12.20;4.60;;;19.80;99.90;;;;;;5094720;28;20383;-61
2021/07/22 06:58:03;;;;;;;12.45;4.57;;;19.80;99.90;;;;;;5094404;28;20388;-60
2021/07/22 07:00:29;;;;;;;8.63;4.15;;;19.90;99.90;;;;;;5094996;28;20381;-60
2021/07/22 07:02:55;;;;;;;9.50;4.40;;;20.10;99.90;;;;;;5094783;28;20877;-60
2021/07/22 07:05:22;;;;;;;10.27;4.47;;;20.10;99.90;;;;;;5094548;28;20384;-60
2021/07/22 07:07:48;;;;;;;8.93;4.03;;;20.20;99.90;;;;;;5095114;28;20399;-60
2021/07/22 07:10:14;;;;;;;11.25;4.18;;;20.40;99.90;;;;;;5094447;28;20389;-60
2021/07/22 07:12:40;;;;;;;11.77;4.07;;;20.50;99.90;;;;;;5093084;28;20380;-61
2021/07/22 07:15:07;;;;;;;9.27;4.07;;;20.70;99.60;;;;;;5094283;28;20396;-60
2021/07/22 07:17:33;;;;;;;9.00;4.30;;;20.80;99.50;;;;;;5086390;28;20392;-60
2021/07/22 07:20:00;;;;;;;9.17;3.90;;;20.70;97.90;;;;;;5087225;28;20386;-60
2021/07/22 07:22:26;;;;;;;9.63;3.83;;;20.70;98.20;;;;;;5087046;28;20389;-60
2021/07/22 07:24:52;;;;;;;9.65;4.00;;;20.60;96.90;;;;;;5088335;28;20458;-60
2021/07/22 07:27:18;;;;;;;11.83;3.97;;;20.60;95.90;;;;;;5086335;28;20855;-60
2021/07/22 07:29:44;;;;;;;8.93;3.70;;;20.60;96.80;;;;;;5088526;28;20380;-60
2021/07/22 07:32:10;;;;;;;8.63;3.75;;;20.60;95.60;;;;;;5088666;28;20825;-60
2021/07/22 07:34:36;;;;;;;12.30;3.83;;;20.60;95.20;;;;;;5086751;28;20784;-60
2021/07/22 07:37:02;;;;;;;11.65;3.88;;;20.70;94.80;;;;;;5085961;28;20422;-61
2021/07/22 07:39:29;;;;;;;11.50;3.83;;;20.70;95.30;;;;;;5091253;28;20392;-60
2021/07/22 07:41:55;;;;;;;10.38;3.75;;;20.80;94.20;;;;;;5087947;28;20397;-60
2021/07/22 07:44:21;;;;;;;9.27;3.70;;;20.90;92.70;;;;;;5088138;28;20404;-61
2021/07/22 07:46:47;;;;;;;9.45;4.05;;;20.70;92.30;;;;;;5088147;28;20380;-60
2021/07/22 07:49:13;;;;;;;7.45;3.47;;;20.70;93.60;;;;;;5087137;28;20394;-61
2021/07/22 07:51:39;;;;;;;10.87;3.73;;;21.10;93.00;;;;;;5086501;28;20383;-61
2021/07/22 07:54:05;;;;;;;12.80;3.72;;;21.20;92.50;;;;;;5084842;28;20850;-61
2021/07/22 07:56:31;;;;;;;8.88;3.50;;;21.20;91.20;;;;;;5084395;28;20388;-61
2021/07/22 07:58:57;;;;;;;7.23;3.23;;;21.10;90.20;;;;;;5089893;28;20393;-59
2021/07/22 08:01:27;;;;;;;10.65;3.83;;;21.10;90.70;;;;;;5086583;28;20383;-60
2021/07/22 08:03:53;;;;;;;11.75;3.58;;;21.10;89.60;;;;;;5085693;28;20758;-60
2021/07/22 08:06:19;;;;;;;14.45;3.60;;;21.30;89.60;;;;;;5086074;28;20388;-61
2021/07/22 08:08:45;;;;;;;14.33;3.30;;;21.40;86.70;;;;;;5086200;28;20463;-61
2021/07/22 08:11:11;;;;;;;9.02;3.40;;;21.40;86.70;;;;;;5086137;28;20383;-60
2021/07/22 08:13:38;;;;;;;9.18;3.47;;;21.70;86.40;;;;;;5088168;28;20749;-60
2021/07/22 08:16:05;;;;;;;11.18;3.53;;;21.90;85.10;;;;;;5086108;28;20366;-60
2021/07/22 08:18:31;;;;;;;12.00;3.40;;;21.90;83.90;;;;;;5085995;28;20377;-60
2021/07/22 08:20:57;;;;;;;12.43;3.37;;;21.60;81.50;;;;;;5087006;28;20378;-60
2021/07/22 08:23:23;;;;;;;12.88;3.53;;;21.30;81.30;;;;;;5088003;28;20402;-60
2021/07/22 08:25:49;;;;;;;9.80;3.50;;;21.60;82.40;;;;;;5086438;28;20385;-60
2021/07/22 08:28:15;;;;;;;14.00;3.63;;;22.00;81.40;;;;;;5089800;28;20388;-60
2021/07/22 08:30:41;;;;;;;11.48;3.20;;;22.60;77.50;;;;;;5086538;28;20974;-61
2021/07/22 08:33:08;;;;;;;9.00;3.10;;;22.30;73.60;;;;;;5085765;28;20382;-60
2021/07/22 08:35:34;;;;;;;9.43;3.00;;;22.50;74.50;;;;;;5087031;28;20889;-62
2021/07/22 08:38:00;;;;;;;10.40;3.20;;;23.00;74.30;;;;;;5085651;28;20398;-61
2021/07/22 08:40:26;;;;;;;9.35;3.17;;;23.40;70.60;;;;;;5084755;28;20395;-61
2021/07/22 08:42:53;;;;;;;12.40;3.30;;;24.00;69.30;;;;;;5082925;28;20368;-61
2021/07/22 08:45:19;;;;;;;8.65;3.30;;;24.20;67.40;;;;;;5087125;28;20376;-61
2021/07/22 08:47:45;;;;;;;8.60;3.00;;;24.50;65.60;;;;;;5088673;27;20800;-61
2021/07/22 08:50:13;;;;;;;10.93;3.13;;;24.70;65.00;;;;;;5089208;28;20384;-62
2021/07/22 08:52:41;;;;;;;10.90;3.00;;;24.60;64.20;;;;;;5092584;28;20736;-61
2021/07/22 08:55:07;;;;;;;9.47;2.70;;;24.20;68.10;;;;;;5086130;28;20401;-61
2021/07/22 08:57:33;;;;;;;8.20;2.75;;;25.10;66.30;;;;;;5090237;28;20376;-61
2021/07/22 09:00:01;;;;;;;10.40;2.90;;;25.50;63.40;;;;;;5090092;28;20380;-62
2021/07/22 09:02:31;;;;;;;10.77;3.13;;;24.90;62.80;;;;;;5090395;28;20865;-61
2021/07/22 09:04:58;;;;;;;10.95;2.92;;;24.30;63.00;;;;;;5092340;28;20435;-61
2021/07/22 09:07:24;;;;;;;8.90;2.90;;;24.10;64.20;;;;;;5092188;28;20872;-61
2021/07/22 09:10:06;;;;;;;8.68;2.85;;;24.60;63.00;;;;;;5089336;28;20384;-61
2021/07/22 09:12:49;;;;;;;12.27;2.90;;;25.30;61.10;;;;;;5091802;28;20384;-61
2021/07/22 09:15:28;;;;;;;11.05;2.92;;;24.60;62.20;;;;;;5091952;28;20368;-60
2021/07/22 09:17:54;;;;;;;13.88;3.20;;;24.70;62.50;;;;;;5091820;28;20392;-61
2021/07/22 09:20:30;;;;;;;12.30;3.20;;;25.40;62.40;;;;;;5090699;28;20870;-62
2021/07/22 09:23:01;;;;;;;9.90;3.00;;;25.30;62.70;;;;;;5091763;28;20380;-61
2021/07/22 09:25:46;;;;;;;11.10;2.80;;;25.40;62.90;;;;;;5091703;28;20388;-60
2021/07/22 09:28:19;;;;;;;11.05;3.20;;;26.30;61.40;;;;;;5091822;28;20407;-60
2021/07/22 09:31:05;;;;;;;11.57;3.28;;;25.70;59.90;;;;;;5091459;28;20365;-60
2021/07/22 09:33:41;;;;;;;10.48;3.10;;;25.40;61.70;;;;;;5091919;28;20385;-60
2021/07/22 09:36:28;;;;;;;12.88;3.10;;;24.90;60.10;;;;;;5091633;28;20373;-61
2021/07/22 09:39:14;;;;;;;10.88;3.30;;;24.70;62.90;;;;;;5090897;28;20377;-61
2021/07/22 09:41:40;;;;;;;9.57;3.10;;;25.10;60.50;;;;;;5091266;28;20392;-60
2021/07/22 09:44:06;;;;;;;10.23;3.03;;;25.30;58.90;;;;;;5091455;28;20396;-61
2021/07/22 09:46:42;;;;;;;10.63;3.17;;;24.50;63.20;;;;;;5090180;28;20364;-60
2021/07/22 09:49:08;;;;;;;11.37;3.37;;;24.30;62.30;;;;;;5089424;28;20387;-60
2021/07/22 09:51:34;;;;;;;12.88;3.55;;;24.10;64.10;;;;;;5091380;28;20387;-61
2021/07/22 09:54:10;;;;;;;11.10;3.27;;;23.90;65.10;;;;;;5091008;28;20721;-61
2021/07/22 09:56:37;;;;;;;9.07;3.33;;;24.20;63.90;;;;;;5091332;28;20381;-61
2021/07/22 09:59:03;;;;;;;15.45;3.08;;;24.20;65.00;;;;;;5070942;28;20395;-61
2021/07/22 10:01:30;;;;;;;14.45;3.42;;;24.60;65.90;;;;;;5073362;28;20388;-61
2021/07/22 10:03:57;;;;;;;8.57;3.08;;;24.80;64.40;;;;;;5089835;28;20411;-61
2021/07/22 10:06:23;;;;;;;12.90;3.42;;;24.50;65.50;;;;;;5073120;28;20380;-61
2021/07/22 10:08:49;;;;;;;13.48;3.70;;;24.50;65.50;;;;;;5090179;28;20733;-61
2021/07/22 10:11:16;;;;;;;9.95;3.63;;;23.90;66.80;;;;;;5091107;28;20380;-61
2021/07/22 10:13:43;;;;;;;13.57;4.07;;;24.20;68.20;;;;;;5091049;28;20385;-61
2021/07/22 10:16:15;;;;;;;11.32;3.35;;;24.20;66.80;;;;;;5090842;28;20849;-61
2021/07/22 10:18:46;;;;;;;11.00;3.30;;;24.10;68.30;;;;;;5073464;28;20407;-62
2021/07/22 10:21:12;;;;;;;12.57;3.55;;;24.50;68.70;;;;;;5091050;28;20381;-62
2021/07/22 10:23:39;;;;;;;15.55;3.53;;;24.70;66.00;;;;;;5088923;28;20405;-62
2021/07/22 10:26:05;;;;;;;11.25;3.60;;;25.20;66.00;;;;;;5090640;28;20857;-62
2021/07/22 10:28:31;;;;;;;16.55;4.13;;;25.40;64.80;;;;;;5087237;28;20384;-62
2021/07/22 10:30:57;;;;;;;11.52;3.28;;;24.90;65.80;;;;;;5089630;28;20372;-62
2021/07/22 10:33:23;;;;;;;13.35;3.65;;;24.60;67.00;;;;;;5090848;28;20384;-61
2021/07/22 10:35:53;;;;;;;13.98;3.80;;;25.00;67.30;;;;;;5072908;28;20744;-61
2021/07/22 10:38:27;;;;;;;13.27;3.30;;;25.10;65.20;;;;;;5089453;28;20390;-62
2021/07/22 10:40:57;;;;;;;13.52;3.45;;;24.90;65.50;;;;;;5090573;28;20416;-61
2021/07/22 10:43:36;;;;;;;12.80;3.60;;;24.70;66.80;;;;;;5073282;28;20456;-61
2021/07/22 10:46:03;;;;;;;14.95;3.78;;;24.10;67.80;;;;;;5089313;28;20392;-62
2021/07/22 10:48:29;;;;;;;15.43;3.50;;;24.60;67.50;;;;;;5090319;28;20380;-60
2021/07/22 10:50:55;;;;;;;11.20;3.20;;;25.50;64.80;;;;;;5089378;28;20376;-61
2021/07/22 10:53:43;;;;;;;13.68;3.63;;;26.30;61.70;;;;;;5090732;28;20376;-60
2021/07/22 10:56:39;;;;;;;12.33;3.30;;;26.80;62.50;;;;;;5088193;28;20376;-61
2021/07/22 10:59:05;;;;;;;14.07;3.58;;;27.00;59.30;;;;;;5089100;28;20388;-62
2021/07/22 11:01:43;;;;;;;15.00;3.55;;;26.40;61.10;;;;;;5090688;28;20381;-61
2021/07/22 11:04:10;;;;;;;17.85;3.53;;;26.10;61.70;;;;;;5090871;28;20884;-62
2021/07/22 11:06:57;;;;;;;15.80;3.65;;;26.50;59.90;;;;;;5090520;28;20396;-62
2021/07/22 11:09:46;;;;;;;13.30;3.20;;;25.10;63.70;;;;;;5090062;28;20376;-62
2021/07/22 11:12:44;;;;;;;12.85;3.40;;;24.80;63.50;;;;;;5088521;28;20384;-62
2021/07/22 11:15:37;;;;;;;15.07;3.65;;;24.80;65.20;;;;;;5092641;28;20377;-62
2021/07/22 11:18:44;;;;;;;13.48;3.55;;;24.90;63.70;;;;;;5089955;28;20384;-61
2021/07/22 11:21:35;;;;;;;11.60;3.30;;;25.30;62.80;;;;;;5094374;28;20356;-60
2021/07/22 11:24:03;;;;;;;13.05;2.90;;;25.20;62.50;;;;;;5093777;28;20396;-61
2021/07/22 11:26:39;;;;;;;11.52;3.45;;;25.40;61.80;;;;;;5094251;28;20845;-61
2021/07/22 11:29:07;;;;;;;11.38;2.97;;;25.30;60.60;;;;;;5092954;28;20380;-61
2021/07/22 11:31:46;;;;;;;13.05;3.40;;;25.70;58.60;;;;;;5094139;28;20377;-61
2021/07/22 11:34:13;;;;;;;9.80;3.15;;;25.90;60.80;;;;;;5093928;28;20892;-61
2021/07/22 11:36:39;;;;;;;10.23;3.00;;;25.80;60.00;;;;;;5093939;28;20389;-61
2021/07/22 11:39:05;;;;;;;11.43;3.10;;;26.30;59.00;;;;;;5094020;28;20372;-61
2021/07/22 11:41:31;;;;;;;9.95;2.88;;;26.70;58.70;;;;;;5093892;28;20399;-62
2021/07/22 11:44:02;;;;;;;11.95;3.42;;;26.40;55.30;;;;;;5094290;28;20404;-61
2021/07/22 11:46:41;;;;;;;11.90;3.20;;;25.70;58.80;;;;;;5092413;28;20690;-61
2021/07/22 11:49:12;;;;;;;12.68;3.25;;;25.80;58.50;;;;;;5093548;28;20376;-60
2021/07/22 11:51:39;;;;;;;12.02;3.42;;;24.90;60.30;;;;;;5093809;28;20469;-62
2021/07/22 11:54:05;;;;;;;13.43;3.33;;;24.60;60.90;;;;;;5093264;28;20380;-61
2021/07/22 11:56:33;;;;;;;9.60;3.08;;;24.60;62.00;;;;;;5093574;28;20381;-61
2021/07/22 11:58:59;;;;;;;10.48;3.47;;;24.50;61.60;;;;;;5093488;28;20384;-60
2021/07/22 12:01:25;;;;;;;14.82;4.00;;;24.40;61.60;;;;;;5093946;28;20399;-60
2021/07/22 12:03:51;;;;;;;11.47;3.50;;;24.10;62.00;;;;;;5093446;28;20884;-61
2021/07/22 12:06:24;;;;;;;12.38;3.35;;;23.80;63.30;;;;;;5093160;28;20407;-61
2021/07/22 12:09:07;;;;;;;14.37;3.63;;;24.30;63.50;;;;;;5092268;28;20861;-61
2021/07/22 12:11:49;;;;;;;11.40;3.50;;;24.70;62.30;;;;;;5093508;28;20385;-62
2021/07/22 12:14:38;;;;;;;12.18;3.42;;;24.20;61.00;;;;;;5091721;28;20883;-61
2021/07/22 12:17:08;;;;;;;11.80;3.20;;;23.70;61.10;;;;;;5090985;28;20440;-61
2021/07/22 12:19:40;;;;;;;11.45;3.90;;;23.10;63.00;;;;;;5091350;28;20388;-60
2021/07/22 12:22:23;;;;;;;11.50;3.20;;;23.00;62.90;;;;;;5093912;28;20381;-61
2021/07/22 12:24:53;;;;;;;8.43;3.20;;;23.50;63.90;;;;;;5092077;28;20403;-61
2021/07/22 12:27:28;;;;;;;11.07;3.47;;;23.40;63.40;;;;;;5090915;28;20841;-61
2021/07/22 12:29:54;;;;;;;10.05;3.15;;;23.60;63.30;;;;;;5090986;28;20373;-61
2021/07/22 12:32:21;;;;;;;9.00;3.25;;;23.80;62.30;;;;;;5074987;28;20360;-60
2021/07/22 12:34:47;;;;;;;11.20;3.30;;;23.70;61.80;;;;;;5093212;28;20415;-61
2021/07/22 12:37:13;;;;;;;10.63;3.63;;;23.50;63.40;;;;;;5093126;28;20820;-61
2021/07/22 12:39:39;;;;;;;11.60;3.25;;;23.50;63.50;;;;;;5091492;28;20373;-60
2021/07/22 12:42:12;;;;;;;14.13;3.67;;;23.60;64.50;;;;;;5092750;28;20396;-61
2021/07/22 12:44:49;;;;;;;10.18;3.25;;;23.40;64.20;;;;;;5092579;28;20396;-61